Time;durP1;ratioP1;P1;durP2;ratioP2;P2;SDS_P1;SDS_P2;PMS_P1;PMS_P2;Temp;Humidity;BMP_temperature;BMP_pressure;BME280_temperature;BME280_humidity;BME280_pressure;Samples;Min_cycle;Max_cycle;Signal;HPM_P1;HPM_P2
2021/12/04 00:00:50;;;;;;;1.63;1.43;;;4.80;99.90;;;;;;5038161;28;20979;-69
2021/12/04 00:03:18;;;;;;;2.20;1.60;;;4.90;99.90;;;;;;5031138;28;20548;-68
2021/12/04 00:05:49;;;;;;;2.37;2.17;;;4.90;99.90;;;;;;5037882;28;20519;-68
2021/12/04 00:08:16;;;;;;;3.00;2.03;;;5.00;99.90;;;;;;5036120;28;20477;-68
2021/12/04 00:10:44;;;;;;;1.53;1.43;;;5.10;99.90;;;;;;5035989;28;20460;-69
2021/12/04 00:13:11;;;;;;;2.37;1.30;;;5.00;99.90;;;;;;5028575;28;20503;-70
2021/12/04 00:15:38;;;;;;;2.20;1.90;;;5.20;99.90;;;;;;5033378;28;20538;-69
2021/12/04 00:18:06;;;;;;;1.67;1.13;;;5.10;99.90;;;;;;5034442;28;21000;-69
2021/12/04 00:20:34;;;;;;;1.63;1.50;;;5.30;99.90;;;;;;5042117;28;20448;-69
2021/12/04 00:23:03;;;;;;;1.20;0.87;;;5.20;99.90;;;;;;5041280;28;20531;-69
2021/12/04 00:25:30;;;;;;;1.80;1.43;;;5.20;99.90;;;;;;5019715;28;20912;-69
2021/12/04 00:27:57;;;;;;;2.40;2.20;;;5.20;99.90;;;;;;5034353;28;20579;-69
2021/12/04 00:30:25;;;;;;;1.50;1.40;;;5.30;99.90;;;;;;5042905;28;20515;-69
2021/12/04 00:32:59;;;;;;;1.80;1.70;;;5.20;99.90;;;;;;5037675;28;21112;-69
2021/12/04 00:35:43;;;;;;;1.40;0.97;;;5.10;99.90;;;;;;5026806;28;20831;-69
2021/12/04 00:49:26;;;;;;;2.43;2.07;;;5.00;99.90;;;;;;5016400;28;20446;-69
2021/12/04 00:51:55;;;;;;;1.43;1.33;;;5.10;99.90;;;;;;5021511;28;20467;-69
2021/12/04 00:54:25;;;;;;;1.50;1.37;;;5.10;99.90;;;;;;5033524;28;20712;-68
2021/12/04 00:56:53;;;;;;;1.57;1.47;;;5.30;99.90;;;;;;5022471;28;20463;-69
2021/12/04 00:59:20;;;;;;;2.13;1.40;;;5.30;99.90;;;;;;5015835;28;20587;-68
2021/12/04 01:01:47;;;;;;;3.17;2.03;;;5.30;99.90;;;;;;5037315;28;20537;-69
2021/12/04 01:04:17;;;;;;;1.70;1.10;;;5.20;99.90;;;;;;5034487;28;20948;-68
2021/12/04 01:06:46;;;;;;;1.80;1.20;;;5.10;99.90;;;;;;5016993;28;20849;-70
2021/12/04 01:09:14;;;;;;;1.90;1.20;;;5.20;99.90;;;;;;5027596;28;20883;-69
2021/12/04 01:11:44;;;;;;;2.07;1.70;;;5.20;99.90;;;;;;5036651;28;20602;-69
2021/12/04 01:14:14;;;;;;;1.20;1.10;;;5.30;99.90;;;;;;5032863;28;20476;-68
2021/12/04 01:16:41;;;;;;;2.10;1.90;;;5.20;99.90;;;;;;5028848;28;20429;-70
2021/12/04 01:19:09;;;;;;;1.87;1.50;;;5.40;99.90;;;;;;5034573;28;20567;-68
2021/12/04 01:21:36;;;;;;;2.63;1.60;;;5.30;99.90;;;;;;5032103;28;20456;-70
2021/12/04 01:24:03;;;;;;;2.13;1.30;;;5.30;99.90;;;;;;5039536;28;20463;-70
2021/12/04 01:26:30;;;;;;;2.10;1.70;;;5.30;99.90;;;;;;5026144;28;20557;-70
2021/12/04 01:28:59;;;;;;;2.37;1.80;;;5.20;99.90;;;;;;5032189;28;20489;-67
2021/12/04 01:31:26;;;;;;;1.87;1.57;;;5.20;99.90;;;;;;5030841;28;20430;-68
2021/12/04 01:33:53;;;;;;;5.87;2.10;;;5.20;99.90;;;;;;5039035;28;20887;-69
2021/12/04 01:36:20;;;;;;;2.37;2.17;;;5.10;99.90;;;;;;5017489;28;20764;-67
2021/12/04 01:38:48;;;;;;;2.43;1.53;;;5.20;99.90;;;;;;5033476;28;20458;-69
2021/12/04 01:41:15;;;;;;;2.13;1.93;;;5.10;99.90;;;;;;5029820;28;20554;-70
2021/12/04 01:43:42;;;;;;;2.87;1.90;;;5.20;99.90;;;;;;5036967;28;20455;-68
2021/12/04 01:46:11;;;;;;;3.60;1.97;;;5.10;99.90;;;;;;5030922;28;21427;-68
2021/12/04 01:48:38;;;;;;;2.83;1.50;;;5.20;99.90;;;;;;5036560;28;21080;-70
2021/12/04 01:51:06;;;;;;;2.07;1.40;;;5.20;99.90;;;;;;5031311;28;20455;-68
2021/12/04 01:53:33;;;;;;;2.67;2.33;;;5.30;99.90;;;;;;5040947;28;20542;-69
2021/12/04 01:56:01;;;;;;;1.60;1.50;;;5.20;99.90;;;;;;5027050;28;20589;-68
2021/12/04 01:58:29;;;;;;;2.00;1.80;;;5.20;99.90;;;;;;5046642;28;20498;-69
2021/12/04 02:00:57;;;;;;;2.70;2.47;;;5.10;99.90;;;;;;5025923;28;20460;-68
2021/12/04 02:03:25;;;;;;;3.03;2.30;;;5.30;99.90;;;;;;5048189;28;20456;-70
2021/12/04 02:05:52;;;;;;;3.13;1.30;;;5.30;99.90;;;;;;5037475;28;20810;-69
2021/12/04 02:08:21;;;;;;;1.63;1.53;;;5.20;99.90;;;;;;5035778;28;20470;-70
2021/12/04 02:10:50;;;;;;;1.80;1.70;;;5.10;99.90;;;;;;5041840;28;20487;-68
2021/12/04 02:13:18;;;;;;;2.80;2.50;;;5.10;99.90;;;;;;5040161;28;20453;-69
2021/12/04 02:15:46;;;;;;;2.40;1.70;;;5.20;99.90;;;;;;5023886;28;20543;-69
2021/12/04 02:18:14;;;;;;;1.80;1.40;;;5.20;99.90;;;;;;5039029;28;20489;-68
2021/12/04 02:20:43;;;;;;;2.23;1.83;;;5.30;99.90;;;;;;5042730;28;20438;-70
2021/12/04 02:23:10;;;;;;;1.70;1.60;;;5.50;99.90;;;;;;5037817;28;20427;-70
2021/12/04 02:25:38;;;;;;;2.80;2.60;;;5.30;99.90;;;;;;5017275;28;20431;-70
2021/12/04 02:28:07;;;;;;;3.27;2.13;;;5.40;99.90;;;;;;5031422;28;20477;-70
2021/12/04 02:30:38;;;;;;;1.73;1.43;;;5.50;99.90;;;;;;5032165;28;20873;-69
2021/12/04 02:33:11;;;;;;;3.33;2.20;;;5.60;99.90;;;;;;5026769;28;20494;-68
2021/12/04 02:35:38;;;;;;;4.70;2.80;;;5.60;99.90;;;;;;5017973;28;20460;-68
2021/12/04 02:38:07;;;;;;;2.00;1.40;;;5.50;99.90;;;;;;5029539;28;20560;-70
2021/12/04 02:40:34;;;;;;;5.93;3.07;;;5.60;99.90;;;;;;5044810;28;20419;-69
2021/12/04 02:43:01;;;;;;;3.80;2.40;;;5.40;99.90;;;;;;5034641;28;20464;-70
2021/12/04 02:45:28;;;;;;;1.93;1.30;;;5.40;99.90;;;;;;5030977;28;20457;-70
2021/12/04 02:47:55;;;;;;;1.60;1.43;;;5.40;99.90;;;;;;5041925;28;20456;-70
2021/12/04 02:50:22;;;;;;;2.90;2.23;;;5.40;99.90;;;;;;5032441;28;21027;-70
2021/12/04 02:52:49;;;;;;;2.40;1.40;;;5.40;99.90;;;;;;5034972;28;20534;-70
2021/12/04 02:55:19;;;;;;;2.93;1.87;;;5.60;99.90;;;;;;5032594;28;20459;-68
2021/12/04 02:57:46;;;;;;;3.47;2.07;;;5.40;99.90;;;;;;5036419;28;20463;-70
2021/12/04 03:00:16;;;;;;;3.20;2.00;;;5.40;99.90;;;;;;5033455;28;20465;-69
2021/12/04 03:02:44;;;;;;;1.90;1.80;;;5.30;99.90;;;;;;5014188;28;20907;-68
2021/12/04 03:05:12;;;;;;;2.63;1.77;;;5.20;99.90;;;;;;5022112;28;20466;-69
2021/12/04 03:07:39;;;;;;;2.60;2.07;;;5.20;99.90;;;;;;5035458;28;20431;-67
2021/12/04 03:10:08;;;;;;;2.30;1.90;;;5.30;99.90;;;;;;5024082;28;20534;-68
2021/12/04 03:12:38;;;;;;;6.30;1.67;;;5.30;99.90;;;;;;5028778;28;20942;-69
2021/12/04 03:15:06;;;;;;;1.37;0.80;;;5.40;99.90;;;;;;5034700;28;20629;-69
2021/12/04 03:17:34;;;;;;;2.90;1.97;;;5.40;99.90;;;;;;5028838;28;20454;-68
2021/12/04 03:20:01;;;;;;;4.07;2.20;;;5.50;99.90;;;;;;5030708;28;20455;-69
2021/12/04 03:22:28;;;;;;;3.13;2.07;;;5.30;99.90;;;;;;5028259;28;20484;-68
2021/12/04 03:24:57;;;;;;;2.17;1.93;;;5.30;99.90;;;;;;5036486;28;20517;-69
2021/12/04 03:27:25;;;;;;;1.50;1.40;;;5.30;99.90;;;;;;5029126;28;20477;-67
2021/12/04 03:29:55;;;;;;;2.07;1.87;;;5.40;99.90;;;;;;5035351;28;20455;-67
2021/12/04 03:32:50;;;;;;;1.83;1.63;;;5.40;99.90;;;;;;5036371;28;21311;-69
2021/12/04 03:39:58;;;;;;;1.97;1.77;;;5.20;99.90;;;;;;5026290;28;20872;-67
2021/12/04 03:40:58;;;;;;;4.00;2.43;;;5.30;99.90;;;;;;5039430;28;20456;-71
2021/12/04 03:43:25;;;;;;;4.07;2.00;;;5.30;99.90;;;;;;5027840;28;20455;-71
2021/12/04 03:45:58;;;;;;;2.83;2.00;;;5.50;99.90;;;;;;5030564;28;20438;-69
2021/12/04 03:48:50;;;;;;;1.63;1.17;;;5.40;99.90;;;;;;5036550;28;21304;-71
2021/12/04 03:51:18;;;;;;;3.67;2.50;;;5.40;99.90;;;;;;5029250;28;20513;-71
2021/12/04 03:53:45;;;;;;;1.60;1.40;;;5.50;99.90;;;;;;5045335;28;20936;-71
2021/12/04 03:56:14;;;;;;;3.37;3.07;;;5.50;99.90;;;;;;5049382;28;20446;-69
2021/12/04 03:58:41;;;;;;;2.50;2.30;;;5.50;99.90;;;;;;5043529;28;20458;-69
2021/12/04 04:01:10;;;;;;;3.37;2.20;;;5.50;99.90;;;;;;5039303;28;20939;-67
2021/12/04 04:03:37;;;;;;;2.10;1.70;;;5.60;99.90;;;;;;5043122;28;20877;-70
2021/12/04 04:06:04;;;;;;;1.47;1.37;;;5.50;99.90;;;;;;5036687;28;21296;-67
2021/12/04 04:08:31;;;;;;;3.40;2.20;;;5.60;99.90;;;;;;5037624;28;20462;-70
2021/12/04 04:10:58;;;;;;;2.33;2.13;;;5.80;99.90;;;;;;5035051;28;20849;-67
2021/12/04 04:13:25;;;;;;;2.50;1.80;;;5.70;99.90;;;;;;5037050;28;20462;-70
2021/12/04 04:15:53;;;;;;;1.40;1.30;;;5.80;99.90;;;;;;5014989;28;20579;-68
2021/12/04 04:18:21;;;;;;;3.83;1.90;;;5.70;99.90;;;;;;5030499;28;20451;-70
2021/12/04 04:20:48;;;;;;;2.40;1.87;;;5.70;99.90;;;;;;5040549;28;20469;-69
2021/12/04 04:23:15;;;;;;;2.10;1.47;;;5.70;99.90;;;;;;5038978;28;20540;-69
2021/12/04 04:25:42;;;;;;;4.07;1.80;;;5.70;99.90;;;;;;5030441;28;20480;-69
2021/12/04 04:28:09;;;;;;;1.83;1.57;;;5.90;99.90;;;;;;5032854;28;20905;-70
2021/12/04 04:30:37;;;;;;;1.63;1.37;;;5.90;99.90;;;;;;5028930;28;20979;-69
2021/12/04 04:33:05;;;;;;;3.20;1.50;;;5.90;99.90;;;;;;5022965;28;20469;-69
2021/12/04 04:35:35;;;;;;;1.63;1.50;;;5.80;99.90;;;;;;5029119;28;20462;-70
2021/12/04 04:38:15;;;;;;;1.90;1.37;;;5.80;99.90;;;;;;5034194;28;20540;-69
2021/12/04 05:00:21;;;;;;;1.97;1.63;;;5.80;99.90;;;;;;4988260;28;20442;-70
2021/12/04 05:11:15;;;;;;;1.67;1.57;;;5.90;99.90;;;;;;5030594;28;20919;-69
2021/12/04 05:13:42;;;;;;;6.40;2.13;;;6.10;99.90;;;;;;5038060;28;20426;-68
2021/12/04 05:16:14;;;;;;;1.63;1.27;;;6.00;99.90;;;;;;5033788;28;20435;-70
2021/12/04 05:18:45;;;;;;;2.40;2.03;;;6.00;99.90;;;;;;5032178;28;20441;-69
2021/12/04 05:21:13;;;;;;;3.97;1.87;;;6.10;99.90;;;;;;5025768;28;20426;-69
2021/12/04 05:23:47;;;;;;;4.00;2.37;;;6.10;99.90;;;;;;5037898;28;20488;-68
2021/12/04 05:26:16;;;;;;;2.27;1.73;;;6.10;99.90;;;;;;5038895;28;20438;-68
2021/12/04 05:28:44;;;;;;;1.90;1.50;;;6.00;99.90;;;;;;5038252;28;20592;-69
2021/12/04 05:31:11;;;;;;;3.13;2.90;;;6.00;99.90;;;;;;5037810;28;20532;-67
2021/12/04 05:33:39;;;;;;;2.07;1.70;;;6.20;99.90;;;;;;5047455;28;20425;-69
2021/12/04 05:36:07;;;;;;;1.80;1.70;;;6.00;99.90;;;;;;5020283;28;20455;-70
2021/12/04 05:38:34;;;;;;;2.47;1.60;;;6.00;99.90;;;;;;5038601;28;20462;-69
2021/12/04 05:41:04;;;;;;;1.60;1.20;;;6.00;99.90;;;;;;5028170;28;20463;-68
2021/12/04 05:43:33;;;;;;;2.00;1.67;;;6.10;99.90;;;;;;5040866;28;20489;-69
2021/12/04 05:46:04;;;;;;;3.53;1.90;;;6.20;99.90;;;;;;5045649;28;20456;-70
2021/12/04 05:48:39;;;;;;;1.73;1.60;;;6.10;99.90;;;;;;5036506;28;20475;-70
2021/12/04 05:54:00;;;;;;;2.30;2.10;;;6.00;99.90;;;;;;5037823;28;20450;-69
2021/12/04 05:56:30;;;;;;;1.93;1.60;;;5.80;99.90;;;;;;5037160;28;20429;-69
2021/12/04 05:58:58;;;;;;;4.03;2.30;;;5.70;99.90;;;;;;5043540;28;20458;-68
2021/12/04 06:01:27;;;;;;;2.23;2.03;;;5.70;99.90;;;;;;5037013;28;20508;-66
2021/12/04 06:03:54;;;;;;;3.13;1.80;;;5.70;99.90;;;;;;5042759;28;20529;-68
2021/12/04 06:06:21;;;;;;;3.50;2.10;;;5.60;99.90;;;;;;5035339;28;20526;-68
2021/12/04 06:08:48;;;;;;;1.87;1.67;;;5.70;99.90;;;;;;5043303;28;20489;-70
2021/12/04 06:11:15;;;;;;;7.80;2.53;;;5.70;99.90;;;;;;5041735;28;21054;-69
2021/12/04 06:13:44;;;;;;;3.50;1.83;;;5.70;99.90;;;;;;5040498;28;20512;-69
2021/12/04 06:16:11;;;;;;;2.13;1.40;;;5.70;99.90;;;;;;5055620;28;20530;-70
2021/12/04 06:18:38;;;;;;;2.90;1.90;;;5.80;99.90;;;;;;5045700;28;20525;-69
2021/12/04 06:23:50;;;;;;;2.20;1.80;;;6.00;99.90;;;;;;5038335;28;20587;-69
2021/12/04 06:26:17;;;;;;;1.73;1.23;;;6.00;99.90;;;;;;5045229;28;22024;-70
2021/12/04 06:28:46;;;;;;;1.77;1.63;;;5.90;99.90;;;;;;5036711;28;20470;-69
2021/12/04 06:31:14;;;;;;;1.40;1.20;;;5.90;99.90;;;;;;5025431;28;20518;-68
2021/12/04 06:33:41;;;;;;;1.90;1.30;;;6.00;99.90;;;;;;5029588;28;20443;-69
2021/12/04 06:36:09;;;;;;;2.10;1.30;;;5.90;99.90;;;;;;5028624;28;20467;-68
2021/12/04 06:38:37;;;;;;;3.17;1.90;;;5.90;99.90;;;;;;5014667;28;20758;-70
2021/12/04 06:41:05;;;;;;;2.40;1.83;;;5.90;99.90;;;;;;5024988;28;20462;-69
2021/12/04 06:43:33;;;;;;;2.17;1.70;;;5.80;99.90;;;;;;5046334;28;20450;-69
2021/12/04 06:46:03;;;;;;;1.60;1.30;;;5.80;99.90;;;;;;5036187;28;20798;-69
2021/12/04 06:48:37;;;;;;;1.63;1.20;;;6.00;99.90;;;;;;5039710;28;20559;-69
2021/12/04 06:51:09;;;;;;;3.03;2.00;;;6.00;99.90;;;;;;5042550;28;20452;-69
2021/12/04 06:53:41;;;;;;;3.90;1.47;;;6.10;99.90;;;;;;5043239;28;20448;-69
2021/12/04 06:56:11;;;;;;;1.33;1.23;;;6.10;99.90;;;;;;5028025;28;20502;-68
2021/12/04 06:58:38;;;;;;;2.53;1.93;;;6.20;99.90;;;;;;5033648;28;20446;-69
2021/12/04 07:01:10;;;;;;;2.43;2.07;;;6.10;99.90;;;;;;5036548;28;20427;-69
2021/12/04 07:03:37;;;;;;;1.70;1.40;;;6.00;99.90;;;;;;5039541;28;20822;-67
2021/12/04 07:06:04;;;;;;;2.23;1.67;;;5.90;99.90;;;;;;5036840;28;20522;-68
2021/12/04 07:08:32;;;;;;;2.20;1.40;;;5.90;99.90;;;;;;5038443;28;20523;-70
2021/12/04 07:10:59;;;;;;;2.00;1.83;;;5.90;99.90;;;;;;5037081;28;20476;-68
2021/12/04 07:13:27;;;;;;;2.50;2.00;;;5.90;99.90;;;;;;5039198;28;21887;-70
2021/12/04 07:16:01;;;;;;;1.70;1.43;;;5.90;99.90;;;;;;5028400;28;20469;-68
2021/12/04 07:18:30;;;;;;;2.53;1.60;;;6.00;99.90;;;;;;5031879;28;20514;-69
2021/12/04 07:20:57;;;;;;;2.90;2.13;;;6.00;99.90;;;;;;5041742;28;20454;-69
2021/12/04 07:23:24;;;;;;;2.60;2.40;;;6.00;99.90;;;;;;5039246;28;20422;-70
2021/12/04 07:25:51;;;;;;;1.90;1.70;;;6.00;99.90;;;;;;5038368;28;20466;-70
2021/12/04 07:28:18;;;;;;;3.07;2.47;;;6.10;99.90;;;;;;5044461;28;20450;-71
2021/12/04 07:30:45;;;;;;;5.93;1.90;;;6.10;99.90;;;;;;5031604;28;20452;-69
2021/12/04 07:33:12;;;;;;;2.97;2.77;;;6.20;99.90;;;;;;5036586;28;20485;-68
2021/12/04 07:35:41;;;;;;;2.87;1.80;;;6.20;99.90;;;;;;5038272;28;20457;-67
2021/12/04 07:38:10;;;;;;;2.60;2.27;;;6.20;99.90;;;;;;5024048;28;20595;-69
2021/12/04 07:40:37;;;;;;;2.27;2.00;;;6.20;99.90;;;;;;5030937;28;20431;-69
2021/12/04 07:43:04;;;;;;;2.00;1.60;;;6.30;99.90;;;;;;5029274;28;20456;-70
2021/12/04 07:45:31;;;;;;;3.90;1.90;;;6.30;99.90;;;;;;5025440;28;20438;-68
2021/12/04 07:47:58;;;;;;;2.83;2.13;;;6.30;99.90;;;;;;5039448;28;20967;-70
2021/12/04 07:50:25;;;;;;;2.37;2.07;;;6.40;99.90;;;;;;5034592;28;20832;-69
2021/12/04 07:52:54;;;;;;;6.80;2.63;;;6.30;99.90;;;;;;5034490;28;20625;-68
2021/12/04 07:55:21;;;;;;;2.40;1.80;;;6.40;99.90;;;;;;5040627;28;20851;-69
2021/12/04 07:57:48;;;;;;;2.27;1.33;;;6.30;99.90;;;;;;5045231;28;20836;-69
2021/12/04 08:00:17;;;;;;;4.53;2.23;;;6.30;99.90;;;;;;5022197;28;20441;-67
2021/12/04 08:02:44;;;;;;;2.17;1.73;;;6.30;99.90;;;;;;5019278;28;20495;-67
2021/12/04 08:05:12;;;;;;;2.87;2.00;;;6.30;99.90;;;;;;5015626;28;20563;-67
2021/12/04 08:07:39;;;;;;;2.40;2.20;;;6.20;99.90;;;;;;5019129;28;20829;-68
2021/12/04 08:10:11;;;;;;;4.83;2.23;;;6.20;99.90;;;;;;5026827;28;20499;-69
2021/12/04 08:12:38;;;;;;;2.23;1.50;;;6.30;99.90;;;;;;5034370;28;21083;-69
2021/12/04 08:15:07;;;;;;;3.53;3.20;;;6.30;99.90;;;;;;5023073;28;20469;-68
2021/12/04 08:17:34;;;;;;;4.50;2.40;;;6.40;99.90;;;;;;5023822;28;20491;-69
2021/12/04 08:20:03;;;;;;;4.97;2.40;;;6.40;99.90;;;;;;5028762;28;20896;-69
2021/12/04 08:22:30;;;;;;;4.03;2.50;;;6.50;99.90;;;;;;5022412;28;22040;-69
2021/12/04 08:24:57;;;;;;;3.10;2.53;;;6.60;99.90;;;;;;5026476;28;20518;-69
2021/12/04 08:27:26;;;;;;;3.97;2.20;;;6.60;99.90;;;;;;5019161;28;20550;-68
2021/12/04 08:29:53;;;;;;;3.20;2.30;;;6.60;99.90;;;;;;5041396;28;20916;-69
2021/12/04 08:32:23;;;;;;;4.03;2.00;;;6.70;99.90;;;;;;5032122;28;20476;-73
2021/12/04 08:34:50;;;;;;;4.00;2.27;;;6.80;99.90;;;;;;5023607;28;21000;-67
2021/12/04 08:37:17;;;;;;;2.03;1.80;;;6.80;99.90;;;;;;5027273;28;20507;-69
2021/12/04 08:39:44;;;;;;;5.20;2.30;;;6.80;99.90;;;;;;5039027;28;20479;-67
2021/12/04 08:42:11;;;;;;;5.00;2.40;;;6.80;99.90;;;;;;5031750;28;21227;-70
2021/12/04 08:44:40;;;;;;;4.50;3.10;;;6.70;99.90;;;;;;5027033;28;20466;-70
2021/12/04 08:47:07;;;;;;;3.57;2.30;;;6.60;99.90;;;;;;5018486;28;20523;-70
2021/12/04 08:49:34;;;;;;;3.27;2.47;;;6.40;99.90;;;;;;5021732;28;20487;-69
2021/12/04 08:52:03;;;;;;;4.40;3.00;;;6.30;99.90;;;;;;5019104;28;20980;-69
2021/12/04 08:54:30;;;;;;;4.63;2.20;;;6.30;99.90;;;;;;5037431;28;21130;-67
2021/12/04 08:56:57;;;;;;;4.03;2.00;;;6.20;99.90;;;;;;5034248;28;20466;-67
2021/12/04 08:59:24;;;;;;;5.00;3.33;;;6.30;99.90;;;;;;5030872;28;20510;-69
2021/12/04 09:01:53;;;;;;;5.10;2.80;;;6.40;99.90;;;;;;5043718;28;21267;-69
2021/12/04 09:04:23;;;;;;;4.43;2.60;;;6.50;99.90;;;;;;5022512;28;20519;-69
2021/12/04 09:06:50;;;;;;;2.70;2.50;;;6.70;99.90;;;;;;5023203;28;20491;-67
2021/12/04 09:09:18;;;;;;;2.10;1.50;;;6.90;99.90;;;;;;5019555;28;21010;-69
2021/12/04 09:11:48;;;;;;;3.60;2.37;;;7.00;99.90;;;;;;5022901;28;20502;-68
2021/12/04 09:14:18;;;;;;;4.17;2.40;;;6.80;99.90;;;;;;5031235;28;21156;-69
2021/12/04 09:16:45;;;;;;;2.73;2.00;;;6.70;99.90;;;;;;5037247;28;20507;-69
2021/12/04 09:19:14;;;;;;;4.33;2.50;;;6.60;99.90;;;;;;5028851;28;20462;-69
2021/12/04 09:21:41;;;;;;;3.67;2.60;;;6.70;99.90;;;;;;5025246;28;21858;-67
2021/12/04 09:24:11;;;;;;;3.03;2.20;;;6.70;99.90;;;;;;5029716;28;20436;-67
2021/12/04 09:26:45;;;;;;;2.17;1.80;;;6.70;99.90;;;;;;5014341;28;20509;-69
2021/12/04 09:29:28;;;;;;;4.70;3.20;;;6.60;99.90;;;;;;5026652;28;20520;-69
2021/12/04 09:35:07;;;;;;;3.90;2.97;;;6.70;99.90;;;;;;5022689;28;20776;-69
2021/12/04 10:02:38;;;;;;;3.73;2.47;;;7.10;99.90;;;;;;5016673;28;20463;-68
2021/12/04 10:05:45;;;;;;;2.83;2.40;;;7.30;99.90;;;;;;5034660;28;21211;-70
2021/12/04 10:11:37;;;;;;;4.40;2.83;;;7.30;99.90;;;;;;5042729;28;20434;-69
2021/12/04 10:17:39;;;;;;;5.93;2.20;;;7.40;99.90;;;;;;4965637;28;20829;-69
2021/12/04 10:20:32;;;;;;;4.40;1.90;;;7.20;99.90;;;;;;4972332;28;20460;-67
2021/12/04 10:23:20;;;;;;;4.30;1.83;;;7.30;99.90;;;;;;5027113;28;21025;-67
2021/12/04 10:34:15;;;;;;;4.90;2.50;;;7.40;99.90;;;;;;5054245;28;20457;-70
2021/12/04 10:36:42;;;;;;;7.23;3.13;;;7.50;99.90;;;;;;5062404;28;20485;-70
2021/12/04 10:39:11;;;;;;;5.23;2.30;;;7.50;99.90;;;;;;5049326;28;20529;-68
2021/12/04 10:41:42;;;;;;;3.43;2.63;;;7.70;99.90;;;;;;5042219;28;20488;-70
2021/12/04 10:44:14;;;;;;;3.67;3.23;;;7.90;99.90;;;;;;5043045;28;20462;-69
2021/12/04 10:46:54;;;;;;;3.43;2.30;;;7.80;99.90;;;;;;5048040;28;20459;-69
2021/12/04 10:49:41;;;;;;;2.80;2.20;;;7.70;99.90;;;;;;5046961;28;20755;-68
2021/12/04 10:52:20;;;;;;;2.33;1.90;;;7.70;99.90;;;;;;5046218;28;20503;-70
2021/12/04 10:54:52;;;;;;;4.73;2.70;;;7.60;99.90;;;;;;5047986;28;20467;-70
2021/12/04 11:00:17;;;;;;;3.43;2.90;;;7.70;99.90;;;;;;5027610;28;20419;-69
2021/12/04 11:02:48;;;;;;;3.10;2.80;;;7.50;99.90;;;;;;5051415;28;21008;-68
2021/12/04 11:05:46;;;;;;;2.87;1.67;;;7.40;99.90;;;;;;5042318;28;20883;-69
2021/12/04 11:19:43;;;;;;;3.20;2.90;;;7.60;99.90;;;;;;5026399;28;20581;-70
2021/12/04 11:22:25;;;;;;;4.70;2.30;;;7.60;99.90;;;;;;5047395;28;20526;-70
2021/12/04 11:36:21;;;;;;;4.20;2.23;;;8.00;99.90;;;;;;5030757;28;20478;-70
2021/12/04 11:38:52;;;;;;;3.33;3.03;;;7.60;99.90;;;;;;5042919;28;20522;-70
2021/12/04 11:41:31;;;;;;;2.43;2.23;;;7.70;99.90;;;;;;5036329;28;20467;-70
2021/12/04 11:44:04;;;;;;;2.27;1.80;;;7.90;99.90;;;;;;5042010;28;20434;-69
2021/12/04 11:46:45;;;;;;;2.33;1.90;;;7.90;99.90;;;;;;5030506;28;20466;-70
2021/12/04 11:49:16;;;;;;;2.53;2.23;;;7.90;99.90;;;;;;5011006;28;21959;-67
2021/12/04 11:51:56;;;;;;;2.43;2.23;;;7.60;99.90;;;;;;5023927;28;20457;-69
2021/12/04 11:54:25;;;;;;;3.03;2.30;;;7.40;99.90;;;;;;5027978;28;20461;-69
2021/12/04 11:57:02;;;;;;;2.20;1.50;;;7.30;99.90;;;;;;5039601;28;21133;-69
2021/12/04 11:59:30;;;;;;;3.30;1.93;;;7.50;99.90;;;;;;5037956;28;20571;-69
2021/12/04 12:02:00;;;;;;;4.73;2.33;;;7.40;99.90;;;;;;5029978;28;21238;-69
2021/12/04 12:04:38;;;;;;;3.10;2.17;;;7.30;99.90;;;;;;5028661;28;21416;-68
2021/12/04 12:07:14;;;;;;;3.63;2.57;;;7.30;99.90;;;;;;5044460;28;20452;-69
2021/12/04 12:09:42;;;;;;;3.50;2.40;;;7.50;99.90;;;;;;5041926;28;20484;-69
2021/12/04 12:12:13;;;;;;;3.40;2.10;;;7.60;99.90;;;;;;5042514;28;20488;-69
2021/12/04 12:14:46;;;;;;;2.53;1.57;;;7.80;99.90;;;;;;5029879;28;21049;-70
2021/12/04 12:17:17;;;;;;;2.73;1.40;;;8.00;99.90;;;;;;5040364;28;20511;-69
2021/12/04 12:19:52;;;;;;;2.30;1.50;;;7.90;99.90;;;;;;5045588;28;20458;-69
2021/12/04 12:22:32;;;;;;;1.50;1.40;;;8.10;99.90;;;;;;5041360;28;20804;-69
2021/12/04 12:25:18;;;;;;;2.03;1.60;;;8.10;99.90;;;;;;5041738;28;20483;-69
2021/12/04 12:27:58;;;;;;;4.60;2.43;;;8.10;99.90;;;;;;5023532;28;20463;-68
2021/12/04 12:33:25;;;;;;;8.90;2.00;;;7.90;99.90;;;;;;5030285;28;20433;-69
2021/12/04 12:36:03;;;;;;;2.70;2.50;;;7.70;99.90;;;;;;5033475;28;20519;-69
2021/12/04 12:38:34;;;;;;;3.33;2.27;;;7.50;99.90;;;;;;5027811;28;20474;-70
2021/12/04 12:41:05;;;;;;;2.93;1.53;;;7.30;99.90;;;;;;5028696;28;20585;-69
2021/12/04 12:43:41;;;;;;;1.90;1.70;;;7.30;99.90;;;;;;5022416;28;20766;-68
2021/12/04 12:46:08;;;;;;;2.10;2.00;;;7.40;99.90;;;;;;5015798;28;20476;-68
2021/12/04 12:48:50;;;;;;;3.37;1.93;;;7.40;99.90;;;;;;5026552;28;20500;-71
2021/12/04 12:51:27;;;;;;;2.50;2.03;;;7.50;99.90;;;;;;5017440;28;20448;-70
2021/12/04 12:53:54;;;;;;;2.40;2.20;;;7.60;99.90;;;;;;5010642;28;20497;-70
2021/12/04 12:56:25;;;;;;;3.30;2.50;;;7.70;99.90;;;;;;5010210;28;21093;-70
2021/12/04 12:58:56;;;;;;;3.27;2.70;;;7.60;99.90;;;;;;5018756;28;21021;-70
2021/12/04 13:13:28;;;;;;;3.80;1.97;;;7.60;99.90;;;;;;5020161;28;20512;-67
2021/12/04 13:16:01;;;;;;;3.00;2.67;;;7.60;99.90;;;;;;5021239;28;20827;-69
2021/12/04 13:18:30;;;;;;;3.10;2.40;;;7.60;99.90;;;;;;5027307;28;20459;-69
2021/12/04 13:21:04;;;;;;;3.40;2.57;;;7.50;99.90;;;;;;5021585;28;20460;-69
2021/12/04 13:23:32;;;;;;;3.93;2.80;;;7.40;99.90;;;;;;5034134;28;20444;-69
2021/12/04 13:26:01;;;;;;;2.53;2.33;;;7.50;99.90;;;;;;5018155;28;20468;-67
2021/12/04 13:28:30;;;;;;;2.67;2.47;;;7.50;99.90;;;;;;5018632;28;20471;-69
2021/12/04 13:31:00;;;;;;;4.57;2.40;;;7.30;99.90;;;;;;5022795;28;20620;-71
2021/12/04 13:33:28;;;;;;;3.30;2.20;;;7.40;99.90;;;;;;5030499;28;20991;-70
2021/12/04 13:35:55;;;;;;;4.67;2.77;;;7.60;99.90;;;;;;5025304;28;20905;-70
2021/12/04 13:38:26;;;;;;;2.23;1.60;;;7.70;99.90;;;;;;5033216;28;20545;-70
2021/12/04 13:40:55;;;;;;;3.33;2.60;;;7.80;99.90;;;;;;5045599;28;20430;-69
2021/12/04 13:43:24;;;;;;;2.40;2.20;;;7.90;99.90;;;;;;5027482;28;20460;-70
2021/12/04 13:46:00;;;;;;;2.70;2.50;;;7.80;99.90;;;;;;5035626;28;20433;-70
2021/12/04 13:48:27;;;;;;;3.40;1.73;;;7.70;99.90;;;;;;5035238;28;20446;-68
2021/12/04 13:50:55;;;;;;;3.03;1.57;;;7.40;99.90;;;;;;5038080;28;20747;-68
2021/12/04 13:53:27;;;;;;;2.27;2.07;;;7.50;99.90;;;;;;5029726;28;20473;-69
2021/12/04 13:55:57;;;;;;;1.97;1.77;;;7.50;99.90;;;;;;5009025;28;20463;-69
2021/12/04 13:58:25;;;;;;;2.40;2.20;;;7.60;99.90;;;;;;5020834;28;20853;-69
2021/12/04 14:00:52;;;;;;;3.10;2.03;;;7.70;99.90;;;;;;5030808;28;20895;-69
2021/12/04 14:03:24;;;;;;;3.53;2.03;;;7.70;99.90;;;;;;5018700;28;20500;-69
2021/12/04 14:05:52;;;;;;;4.70;2.43;;;7.70;99.90;;;;;;5017948;28;20436;-70
2021/12/04 14:08:19;;;;;;;2.00;1.80;;;7.80;99.90;;;;;;5029090;28;20450;-69
2021/12/04 14:10:49;;;;;;;5.60;4.07;;;8.00;99.90;;;;;;5025403;28;20460;-70
2021/12/04 14:13:20;;;;;;;2.70;2.33;;;8.00;99.90;;;;;;5032835;28;20452;-68
2021/12/04 14:15:50;;;;;;;4.17;2.13;;;8.00;99.90;;;;;;5016529;28;21000;-68
2021/12/04 14:18:22;;;;;;;4.07;3.20;;;8.00;99.90;;;;;;5026024;28;20573;-70
2021/12/04 14:20:51;;;;;;;3.13;2.30;;;7.90;99.90;;;;;;5026374;28;20466;-70
2021/12/04 14:23:18;;;;;;;5.30;3.50;;;7.90;99.90;;;;;;5029668;28;20544;-69
2021/12/04 14:28:25;;;;;;;4.30;3.53;;;7.90;99.90;;;;;;5089988;23;20485;-71
2021/12/04 14:30:53;;;;;;;5.20;4.00;;;7.90;99.90;;;;;;5084449;28;20431;-70
2021/12/04 14:33:22;;;;;;;4.00;3.37;;;7.80;99.90;;;;;;5074949;28;25806;-71
2021/12/04 14:35:51;;;;;;;6.63;5.87;;;7.80;99.90;;;;;;5057323;28;20540;-71
2021/12/04 14:38:22;;;;;;;5.43;4.93;;;7.80;99.90;;;;;;5067981;28;20876;-69
2021/12/04 14:40:51;;;;;;;3.40;3.10;;;7.90;99.90;;;;;;5076194;28;20424;-70
2021/12/04 14:43:21;;;;;;;8.63;4.60;;;7.90;99.90;;;;;;5060776;28;20770;-70
2021/12/04 14:45:52;;;;;;;9.33;3.07;;;7.80;99.90;;;;;;5056542;28;20477;-70
2021/12/04 14:48:23;;;;;;;5.23;4.67;;;7.90;99.90;;;;;;5071398;28;20557;-69
2021/12/04 14:50:56;;;;;;;4.13;3.50;;;7.80;99.90;;;;;;5080289;28;20511;-69
2021/12/04 14:53:24;;;;;;;10.47;6.10;;;7.90;99.90;;;;;;5089847;28;20876;-70
2021/12/04 14:55:52;;;;;;;10.30;6.60;;;7.80;99.90;;;;;;5079779;28;20449;-69
2021/12/04 14:58:21;;;;;;;5.00;2.80;;;7.80;99.90;;;;;;5064179;28;20492;-70
2021/12/04 15:00:52;;;;;;;13.40;6.30;;;7.80;99.90;;;;;;5065890;28;20544;-69
2021/12/04 15:03:29;;;;;;;6.37;3.30;;;7.80;99.90;;;;;;5056728;28;20437;-70
2021/12/04 15:06:00;;;;;;;7.70;4.90;;;7.70;99.90;;;;;;5056123;28;21213;-68
2021/12/04 15:08:32;;;;;;;4.90;3.87;;;7.70;99.90;;;;;;5055131;28;20446;-70
2021/12/04 15:11:05;;;;;;;9.97;5.53;;;7.70;99.90;;;;;;5052889;28;20770;-70
2021/12/04 15:13:36;;;;;;;8.53;5.53;;;7.50;99.90;;;;;;5058738;28;20540;-69
2021/12/04 15:16:07;;;;;;;4.70;3.37;;;7.30;99.90;;;;;;5061772;28;20465;-70
2021/12/04 15:18:36;;;;;;;10.40;4.10;;;7.30;99.90;;;;;;5070016;28;20835;-71
2021/12/04 15:21:05;;;;;;;6.00;3.83;;;7.30;99.90;;;;;;5065358;28;20794;-70
2021/12/04 15:23:36;;;;;;;4.07;3.60;;;7.40;99.90;;;;;;5061978;28;20454;-69
2021/12/04 15:26:11;;;;;;;3.33;3.03;;;7.50;99.90;;;;;;5052638;28;20457;-70